createdAt,value
2022-10-19T00:01:08.922Z,1.00
2022-10-19T00:06:26.273Z,1.00
2022-10-19T00:11:30.265Z,2.00
2022-10-19T00:16:37.105Z,3.10
2022-10-19T00:21:40.287Z,2.97
2022-10-19T00:26:43.616Z,1.85
2022-10-19T00:31:46.344Z,2.78
2022-10-19T00:36:49.160Z,1.83
2022-10-19T00:41:51.920Z,1.35
2022-10-19T00:46:54.775Z,1.60
2022-10-19T00:52:07.075Z,1.30
2022-10-19T00:57:10.617Z,0.88
2022-10-19T01:02:13.265Z,1.60
2022-10-19T01:07:16.357Z,0.93
2022-10-19T01:12:31.395Z,1.38
2022-10-19T01:17:52.500Z,1.33
2022-10-19T01:23:19.495Z,1.33
2022-10-19T01:28:52.522Z,1.00
2022-10-19T01:34:12.950Z,1.00
2022-10-19T01:39:53.246Z,0.70
2022-10-19T01:45:16.061Z,1.27
2022-10-19T01:50:36.308Z,1.13
2022-10-19T01:55:43.223Z,1.40
2022-10-19T02:00:46.956Z,2.35
2022-10-19T02:05:51.149Z,2.05
2022-10-19T02:10:54.326Z,1.45
2022-10-19T02:15:59.781Z,1.65
2022-10-19T02:21:06.067Z,2.00
2022-10-19T02:26:08.999Z,2.95
2022-10-19T02:31:11.793Z,2.10
2022-10-19T02:36:14.542Z,1.40
2022-10-19T02:41:40.166Z,2.20
2022-10-19T02:46:50.598Z,1.58
2022-10-19T02:51:58.939Z,2.30
2022-10-19T02:57:01.793Z,2.22
2022-10-19T03:02:04.438Z,1.90
2022-10-19T03:07:07.236Z,1.70
2022-10-19T03:12:10.623Z,0.98
2022-10-19T03:17:13.286Z,1.10
2022-10-19T03:22:16.067Z,1.27
2022-10-19T03:27:18.771Z,1.38
2022-10-19T03:32:21.869Z,1.20
2022-10-19T03:37:24.691Z,0.93
2022-10-19T03:42:27.866Z,1.55
2022-10-19T03:47:30.626Z,2.03
2022-10-19T03:52:33.325Z,2.30
2022-10-19T03:57:36.262Z,2.10
2022-10-19T04:02:39.189Z,2.58
2022-10-19T04:07:41.882Z,1.52
2022-10-19T04:12:44.643Z,1.48
2022-10-19T04:17:48.707Z,2.40
2022-10-19T04:22:53.572Z,2.83
2022-10-19T04:27:56.229Z,1.77
2022-10-19T04:32:58.993Z,2.25
2022-10-19T04:38:01.719Z,1.50
2022-10-19T04:43:05.311Z,1.40
2022-10-19T04:48:08.047Z,1.50
2022-10-19T04:53:10.814Z,1.20
2022-10-19T04:58:13.555Z,3.25
2022-10-19T05:03:16.634Z,1.77
2022-10-19T05:08:19.347Z,3.45
2022-10-19T05:13:22.183Z,2.17
2022-10-19T05:18:25.138Z,1.70
2022-10-19T05:23:27.975Z,1.90
2022-10-19T05:28:31.242Z,2.47
2022-10-19T05:33:34.471Z,2.40
2022-10-19T05:38:37.127Z,4.70
2022-10-19T05:43:41.513Z,2.90
2022-10-19T05:48:44.928Z,10.83
2022-10-19T05:53:47.902Z,3.03
2022-10-19T05:58:50.973Z,3.05
2022-10-19T06:03:55.423Z,3.83
2022-10-19T06:08:59.401Z,4.28
2022-10-19T06:14:03.464Z,4.18
2022-10-19T06:19:07.947Z,5.18
2022-10-19T06:24:11.543Z,4.93
2022-10-19T06:29:14.264Z,4.47
2022-10-19T06:34:17.171Z,5.55
2022-10-19T06:39:19.893Z,4.75
2022-10-19T06:44:22.932Z,4.97
2022-10-19T06:55:54.653Z,5.28
2022-10-19T07:00:58.623Z,4.97
2022-10-19T07:06:03.292Z,5.00
2022-10-19T07:11:08.677Z,5.27
2022-10-19T07:21:23.651Z,6.57
2022-10-19T07:26:28.552Z,6.53
2022-10-19T07:31:31.705Z,6.13
2022-10-19T07:36:37.300Z,6.82
2022-10-19T07:41:40.364Z,6.63
2022-10-19T07:46:43.417Z,7.25
2022-10-19T07:51:47.180Z,6.57
2022-10-19T07:56:49.943Z,7.18
2022-10-19T08:01:54.606Z,7.28
2022-10-19T08:06:57.396Z,7.20
2022-10-19T08:12:00.121Z,7.38
2022-10-19T08:17:03.448Z,7.32
2022-10-19T08:22:06.102Z,8.48
2022-10-19T08:27:08.804Z,5.85
2022-10-19T08:32:11.523Z,6.90
2022-10-19T08:37:25.859Z,6.82
2022-10-19T08:42:49.965Z,6.22
2022-10-19T08:48:24.597Z,5.68
2022-10-19T08:53:42.000Z,6.22
2022-10-19T08:59:03.325Z,5.60
2022-10-19T09:04:24.661Z,5.45
2022-10-19T09:09:30.247Z,5.53
2022-10-19T09:15:04.641Z,5.05
2022-10-19T09:20:16.402Z,5.53
2022-10-19T09:25:23.060Z,7.13
2022-10-19T09:30:25.722Z,5.63
2022-10-19T09:35:32.786Z,6.35
2022-10-19T09:40:35.779Z,6.10
2022-10-19T09:45:53.331Z,5.60
2022-10-19T09:50:59.385Z,5.55
2022-10-19T09:56:09.576Z,5.18
2022-10-19T10:01:42.999Z,7.10
2022-10-19T10:06:48.665Z,5.68
2022-10-19T10:11:52.145Z,5.57
2022-10-19T10:17:17.653Z,5.40
2022-10-19T10:22:34.968Z,5.30
2022-10-19T10:27:39.324Z,4.65
2022-10-19T10:32:53.279Z,4.93
2022-10-19T10:38:24.480Z,6.10
2022-10-19T10:43:35.888Z,6.22
2022-10-19T10:48:53.403Z,6.47
2022-10-19T10:54:15.284Z,8.07
2022-10-19T10:59:28.254Z,7.88
2022-10-19T11:04:36.286Z,7.32
2022-10-19T11:09:43.886Z,7.70
2022-10-19T11:14:50.325Z,8.48
2022-10-19T11:19:53.991Z,8.70
2022-10-19T11:25:05.722Z,8.50
2022-10-19T11:30:10.517Z,16.98
2022-10-19T11:35:53.295Z,10.48
2022-10-19T11:41:39.625Z,10.52
2022-10-19T11:47:10.896Z,12.65
2022-10-19T11:53:01.401Z,11.90
2022-10-19T11:58:42.251Z,11.07
2022-10-19T12:04:04.478Z,11.63
2022-10-19T12:09:19.389Z,13.35
2022-10-19T12:14:27.245Z,17.38
2022-10-19T12:19:33.394Z,16.55
2022-10-19T12:24:36.292Z,15.05
2022-10-19T12:29:41.891Z,15.93
2022-10-19T12:34:55.957Z,15.52
2022-10-19T12:40:24.306Z,14.52
2022-10-19T12:45:41.808Z,12.90
2022-10-19T12:50:50.534Z,11.93
2022-10-19T12:56:03.646Z,10.65
2022-10-19T13:01:08.088Z,9.00
2022-10-19T13:06:18.334Z,9.10
2022-10-19T13:11:21.784Z,9.18
2022-10-19T13:16:30.543Z,8.98
2022-10-19T13:21:54.321Z,8.52
2022-10-19T13:27:03.230Z,9.13
2022-10-19T13:32:46.345Z,8.52
2022-10-19T13:38:17.047Z,8.93
2022-10-19T13:43:28.036Z,9.75
2022-10-19T13:48:57.301Z,10.75
2022-10-19T13:54:02.634Z,9.15
2022-10-19T14:04:32.735Z,9.80
2022-10-19T14:10:03.441Z,9.80
2022-10-19T14:15:19.709Z,9.75
2022-10-19T14:20:31.814Z,9.52
2022-10-19T14:25:34.566Z,10.00
2022-10-19T14:30:37.790Z,10.25
2022-10-19T14:35:42.204Z,10.07
2022-10-19T14:40:44.852Z,10.55
2022-10-19T14:46:04.697Z,11.48
2022-10-19T14:51:35.880Z,11.05
2022-10-19T14:56:54.147Z,10.40
2022-10-19T15:01:59.762Z,11.85
2022-10-19T15:07:04.273Z,12.05
2022-10-19T15:12:15.291Z,12.07
2022-10-19T15:17:27.838Z,12.85
2022-10-19T15:22:33.697Z,12.15
2022-10-19T15:27:46.483Z,11.90
2022-10-19T15:33:00.812Z,12.80
2022-10-19T15:38:19.063Z,11.93
2022-10-19T15:43:31.040Z,12.63
2022-10-19T15:48:55.491Z,12.27
2022-10-19T15:54:00.414Z,12.85
2022-10-19T15:59:10.586Z,13.85
2022-10-19T16:04:13.442Z,13.23
2022-10-19T16:09:23.163Z,12.48
2022-10-19T16:14:27.045Z,12.35
2022-10-19T16:19:30.118Z,12.95
2022-10-19T16:24:33.066Z,15.50
2022-10-19T16:29:35.982Z,18.63
2022-10-19T16:34:38.716Z,18.10
2022-10-19T16:39:41.674Z,17.70
2022-10-19T16:44:44.751Z,15.18
2022-10-19T16:49:47.486Z,16.38
2022-10-19T16:54:50.313Z,15.52
2022-10-19T17:05:01.455Z,16.88
2022-10-19T17:10:05.828Z,15.75
2022-10-19T17:15:40.842Z,15.07
2022-10-19T17:20:35.372Z,16.63
2022-10-19T17:25:38.128Z,18.15
2022-10-19T17:30:43.645Z,18.40
2022-10-19T17:35:46.264Z,17.98
2022-10-19T17:40:48.896Z,19.20
2022-10-19T17:45:58.489Z,18.45
2022-10-19T17:51:03.225Z,16.70
2022-10-19T17:56:07.466Z,17.50
2022-10-19T18:01:11.134Z,16.23
2022-10-19T18:06:15.927Z,18.10
2022-10-19T18:11:21.432Z,17.83
2022-10-19T18:16:30.451Z,17.50
2022-10-19T18:21:40.626Z,17.20
2022-10-19T18:26:43.445Z,17.20
2022-10-19T18:31:51.756Z,16.10
2022-10-19T18:36:55.389Z,17.08
2022-10-19T18:41:58.084Z,17.83
2022-10-19T18:47:00.770Z,17.70
2022-10-19T18:52:03.449Z,17.33
2022-10-19T18:57:06.133Z,19.00
2022-10-19T19:02:17.173Z,18.48
2022-10-19T19:07:25.739Z,17.50
2022-10-19T19:12:28.460Z,16.55
2022-10-19T19:17:31.166Z,18.27
2022-10-19T19:22:34.490Z,17.85
2022-10-19T19:32:44.772Z,18.05
2022-10-19T19:37:47.475Z,20.05
2022-10-19T19:42:50.137Z,16.65
2022-10-19T19:47:53.040Z,17.70
2022-10-19T19:52:55.755Z,17.17
2022-10-19T19:57:58.421Z,15.63
2022-10-19T20:03:01.244Z,16.30
2022-10-19T20:08:03.977Z,15.32
2022-10-19T20:13:06.826Z,15.07
2022-10-19T20:18:10.029Z,14.00
2022-10-19T20:23:12.743Z,15.25
2022-10-19T20:28:15.428Z,13.13
2022-10-19T20:33:18.059Z,13.30
2022-10-19T20:38:20.699Z,13.73
2022-10-19T20:43:23.365Z,14.15
2022-10-19T20:48:26.062Z,12.80
2022-10-19T20:53:28.766Z,13.10
2022-10-19T20:58:31.935Z,13.10
2022-10-19T21:03:34.664Z,12.75
2022-10-19T21:08:38.034Z,12.50
2022-10-19T21:13:41.496Z,12.65
2022-10-19T21:18:45.455Z,11.43
2022-10-19T21:23:50.169Z,11.20
2022-10-19T21:28:53.617Z,9.70
2022-10-19T21:33:56.264Z,10.05
2022-10-19T21:38:58.975Z,9.20
2022-10-19T21:44:01.604Z,8.80
2022-10-19T21:49:04.397Z,9.15
2022-10-19T21:54:14.275Z,8.80
2022-10-19T21:59:17.697Z,8.48
2022-10-19T22:04:21.503Z,9.00
2022-10-19T22:09:24.242Z,7.28
2022-10-19T22:14:27.662Z,7.93
2022-10-19T22:19:30.245Z,8.27
2022-10-19T22:24:35.394Z,7.57
2022-10-19T22:29:38.109Z,8.18
2022-10-19T22:34:40.790Z,8.13
2022-10-19T22:39:43.485Z,8.40
2022-10-19T22:44:46.190Z,8.85
2022-10-19T22:49:48.858Z,8.63
2022-10-19T22:54:51.622Z,8.35
2022-10-19T22:59:54.287Z,8.02
2022-10-19T23:04:56.945Z,8.68
2022-10-19T23:09:59.764Z,7.93
2022-10-19T23:15:02.418Z,8.13
2022-10-19T23:20:06.521Z,8.30
2022-10-19T23:25:09.898Z,7.63
2022-10-19T23:30:12.594Z,8.20
2022-10-19T23:35:15.386Z,7.00
2022-10-19T23:40:18.056Z,7.43
2022-10-19T23:45:20.874Z,7.75
2022-10-19T23:50:23.434Z,8.18
2022-10-19T23:55:26.136Z,8.25
